Time;durP1;ratioP1;P1;durP2;ratioP2;P2;SDS_P1;SDS_P2;PMS_P1;PMS_P2;Temp;Humidity;BMP_temperature;BMP_pressure;BME280_temperature;BME280_humidity;BME280_pressure;Samples;Min_cycle;Max_cycle;Signal;HPM_P1;HPM_P2
2022/01/18 00:01:12;;;;;;;;;78.75;57.75;;;;;4.09;85.15;103624.63;5055104;28;45520;-69
2022/01/18 00:03:37;;;;;;;;;76.50;60.25;;;;;4.09;84.86;103631.56;5054993;28;45537;-69
2022/01/18 00:06:03;;;;;;;;;84.25;60.50;;;;;4.07;84.81;103630.59;5054812;28;45516;-69
2022/01/18 00:08:29;;;;;;;;;75.25;56.75;;;;;4.05;84.87;103634.91;5055230;28;45331;-69
2022/01/18 00:10:54;;;;;;;;;82.50;62.25;;;;;3.99;84.99;103632.13;5057063;28;45418;-69
2022/01/18 00:16:12;;;;;;;;;83.25;60.75;;;;;3.98;85.25;103622.53;5054641;28;45453;-69
2022/01/18 00:18:39;;;;;;;;;77.75;58.25;;;;;3.96;85.44;103638.09;5054602;28;45319;-69
2022/01/18 00:23:32;;;;;;;;;73.25;57.25;;;;;3.87;84.88;103609.22;5055375;28;45303;-69
2022/01/18 00:25:58;;;;;;;;;85.50;61.50;;;;;3.87;85.22;103623.09;5056643;28;45761;-69
2022/01/18 00:28:26;;;;;;;;;82.50;62.00;;;;;3.90;85.48;103643.09;5054849;28;45308;-69
2022/01/18 00:36:21;;;;;;;;;78.75;60.75;;;;;3.85;85.66;103629.94;5060945;28;45234;-69
2022/01/18 00:38:48;;;;;;;;;70.00;51.50;;;;;3.83;85.10;103628.16;5054305;28;46147;-69
2022/01/18 00:41:16;;;;;;;;;73.50;56.00;;;;;3.83;85.47;103609.94;5055561;28;45463;-69
2022/01/18 00:43:42;;;;;;;;;68.75;54.75;;;;;3.81;85.47;103616.81;5056020;28;45474;-69
2022/01/18 00:46:09;;;;;;;;;69.75;54.25;;;;;3.79;85.46;103613.28;5054461;28;45897;-69
2022/01/18 00:48:35;;;;;;;;;76.50;56.50;;;;;3.77;85.62;103608.03;5053759;28;45284;-69
2022/01/18 00:51:03;;;;;;;;;71.50;56.50;;;;;3.74;84.99;103610.53;5054682;28;45438;-69
2022/01/18 00:53:32;;;;;;;;;74.00;57.25;;;;;3.71;85.22;103607.84;5054340;28;46365;-69
2022/01/18 00:58:32;;;;;;;;;75.00;54.50;;;;;3.70;85.08;103611.25;5054390;28;45304;-69
2022/01/18 01:00:57;;;;;;;;;66.00;53.00;;;;;3.67;85.31;103603.38;5054249;28;45378;-69
2022/01/18 01:03:22;;;;;;;;;68.00;53.00;;;;;3.67;85.50;103608.59;5053457;28;45354;-69
2022/01/18 01:05:48;;;;;;;;;71.00;55.67;;;;;3.59;85.58;103603.13;5053893;28;45507;-69
2022/01/18 01:08:14;;;;;;;;;68.00;53.50;;;;;3.63;85.63;103596.31;5054708;28;45406;-69
2022/01/18 01:10:39;;;;;;;;;72.25;50.50;;;;;3.63;85.76;103602.38;5055237;28;45625;-69
2022/01/18 01:13:05;;;;;;;;;70.25;54.00;;;;;3.54;85.33;103596.88;5053794;28;47243;-69
2022/01/18 01:15:34;;;;;;;;;68.75;52.75;;;;;3.61;85.33;103611.00;5053850;28;45658;-69
2022/01/18 01:36:50;;;;;;;;;52.50;45.25;;;;;3.91;87.37;103603.25;5056099;28;45559;-69
2022/01/18 01:42:12;;;;;;;;;53.00;42.00;;;;;4.16;87.95;103620.47;5053635;28;45739;-69
2022/01/18 01:44:45;;;;;;;;;53.75;42.25;;;;;4.27;87.58;103613.88;5036452;28;46293;-69
2022/01/18 01:47:17;;;;;;;;;42.50;34.75;;;;;4.32;87.66;103614.88;5055130;28;46275;-69
2022/01/18 01:49:43;;;;;;;;;44.25;37.75;;;;;4.41;87.28;103629.91;5055206;28;45291;-69
2022/01/18 01:52:10;;;;;;;;;42.50;34.50;;;;;4.43;87.39;103626.50;5053675;28;45337;-69
2022/01/18 01:54:36;;;;;;;;;32.75;24.75;;;;;4.51;87.34;103620.63;5053394;28;45332;-69
2022/01/18 01:57:02;;;;;;;;;42.00;32.50;;;;;4.56;87.09;103617.31;5053409;28;45847;-69
2022/01/18 01:59:27;;;;;;;;;44.50;29.00;;;;;4.59;87.62;103619.13;5053531;28;45407;-69
2022/01/18 02:01:52;;;;;;;;;27.25;25.25;;;;;4.62;87.36;103621.81;5055444;28;45456;-69
2022/01/18 02:04:19;;;;;;;;;30.25;23.50;;;;;4.62;87.30;103619.22;5055751;28;46284;-69
2022/01/18 02:06:44;;;;;;;;;37.25;28.75;;;;;4.64;87.30;103618.41;5052968;28;45379;-69
2022/01/18 02:09:10;;;;;;;;;39.75;29.00;;;;;4.65;87.46;103611.50;5052641;28;45761;-69
2022/01/18 02:11:36;;;;;;;;;33.00;25.75;;;;;4.74;87.24;103621.25;5053286;28;45386;-69
2022/01/18 02:14:04;;;;;;;;;30.00;28.75;;;;;4.75;86.92;103618.72;5054799;28;45325;-69
2022/01/18 02:22:04;;;;;;;;;37.25;25.25;;;;;4.72;86.97;103616.03;5055651;28;45322;-69
2022/01/18 02:24:29;;;;;;;;;36.25;27.50;;;;;4.67;86.73;103610.69;5052751;28;46081;-69
2022/01/18 02:26:55;;;;;;;;;29.75;27.00;;;;;4.70;87.26;103609.91;5052761;28;45434;-69
2022/01/18 02:29:20;;;;;;;;;35.75;26.00;;;;;4.73;86.75;103620.38;5053014;28;46109;-69
2022/01/18 02:31:46;;;;;;;;;33.25;26.00;;;;;4.69;86.91;103627.22;5054900;28;45374;-69
2022/01/18 02:34:17;;;;;;;;;30.25;23.25;;;;;4.67;87.29;103615.00;5052618;28;45898;-69
2022/01/18 02:36:43;;;;;;;;;28.00;22.75;;;;;4.67;87.25;103589.84;5052732;28;45654;-69
2022/01/18 02:39:10;;;;;;;;;32.00;29.25;;;;;4.68;87.10;103612.44;5052829;28;45426;-69
2022/01/18 02:41:37;;;;;;;;;30.50;27.00;;;;;4.68;87.27;103609.84;5052954;28;45328;-69
2022/01/18 02:44:06;;;;;;;;;37.00;24.75;;;;;4.71;87.35;103598.63;5054541;28;46195;-69
2022/01/18 02:46:32;;;;;;;;;34.25;25.25;;;;;4.64;87.08;103576.72;5053175;28;45940;-69
2022/01/18 02:48:59;;;;;;;;;27.75;22.00;;;;;4.76;86.78;103604.84;5052569;28;45537;-69
2022/01/18 02:51:25;;;;;;;;;32.75;25.25;;;;;4.78;87.02;103590.13;5052477;28;45589;-69
2022/01/18 02:54:05;;;;;;;;;30.75;25.25;;;;;4.80;87.08;103582.34;5055815;28;46683;-69
2022/01/18 02:56:37;;;;;;;;;32.75;24.50;;;;;4.81;87.04;103582.41;5052601;28;45301;-69
2022/01/18 02:59:12;;;;;;;;;29.50;19.75;;;;;4.82;87.22;103578.06;5050038;28;45335;-69
2022/01/18 03:04:22;;;;;;;;;32.50;20.75;;;;;4.88;87.20;103578.22;5052746;28;45454;-69
2022/01/18 03:06:47;;;;;;;;;35.25;20.50;;;;;4.91;87.06;103576.59;5052271;28;45301;-69
2022/01/18 03:09:13;;;;;;;;;23.25;18.50;;;;;4.94;86.79;103563.63;5052404;28;45549;-69
2022/01/18 03:11:39;;;;;;;;;29.25;20.00;;;;;4.92;87.06;103570.53;5052840;28;45308;-69
2022/01/18 03:14:04;;;;;;;;;24.50;21.50;;;;;4.93;86.92;103576.63;5054145;28;46108;-69
2022/01/18 03:16:30;;;;;;;;;26.75;18.25;;;;;4.94;87.18;103548.00;5044122;28;45431;-69
2022/01/18 03:18:55;;;;;;;;;26.25;22.25;;;;;4.97;86.85;103552.41;5052287;28;45310;-69
2022/01/18 03:21:20;;;;;;;;;21.00;19.25;;;;;4.95;86.79;103567.13;5055429;28;45440;-69
2022/01/18 03:23:51;;;;;;;;;23.50;19.50;;;;;4.93;86.87;103563.59;5064797;27;45485;-69
2022/01/18 03:26:18;;;;;;;;;31.00;23.50;;;;;4.92;86.47;103554.03;5055924;28;46516;-69
2022/01/18 03:28:44;;;;;;;;;24.50;19.25;;;;;4.90;86.64;103553.09;5057799;28;45344;-69
2022/01/18 03:31:09;;;;;;;;;33.00;20.50;;;;;4.86;86.65;103546.06;5055615;28;45489;-69
2022/01/18 03:33:35;;;;;;;;;23.25;18.00;;;;;4.81;86.71;103538.13;5055974;28;45910;-69
2022/01/18 03:36:02;;;;;;;;;25.50;17.75;;;;;4.87;86.73;103558.22;5055664;28;45391;-69
2022/01/18 03:38:30;;;;;;;;;22.25;18.50;;;;;4.88;87.19;103555.66;5055744;28;45551;-69
2022/01/18 03:41:01;;;;;;;;;30.75;22.25;;;;;4.85;86.99;103537.31;5057341;28;45606;-69
2022/01/18 03:43:27;;;;;;;;;20.75;19.00;;;;;4.92;86.65;103554.91;5055283;28;46122;-69
2022/01/18 03:45:59;;;;;;;;;24.25;18.50;;;;;4.90;86.94;103556.56;5055745;28;45529;-69
2022/01/18 03:48:34;;;;;;;;;22.00;18.00;;;;;4.91;86.89;103550.53;5055492;28;45301;-69
2022/01/18 03:51:01;;;;;;;;;22.00;16.75;;;;;4.89;86.99;103553.94;5055413;28;45446;-69
2022/01/18 03:53:27;;;;;;;;;25.00;18.50;;;;;4.84;86.84;103545.13;5044939;28;46189;-69
2022/01/18 03:55:53;;;;;;;;;25.75;19.75;;;;;4.90;86.69;103545.25;5056932;28;45392;-69
2022/01/18 03:58:20;;;;;;;;;26.75;19.50;;;;;4.91;87.02;103552.28;5055036;28;45690;-69
2022/01/18 04:00:46;;;;;;;;;26.75;23.00;;;;;4.94;87.02;103554.94;5058478;28;45513;-69
2022/01/18 04:03:12;;;;;;;;;30.25;21.00;;;;;4.98;86.84;103548.97;5058806;28;47151;-69
2022/01/18 04:05:37;;;;;;;;;28.50;22.75;;;;;5.00;87.16;103547.25;5057684;28;47794;-69
2022/01/18 04:08:03;;;;;;;;;26.75;20.00;;;;;5.00;86.86;103546.38;5061813;28;45237;-69
2022/01/18 04:10:28;;;;;;;;;24.75;16.00;;;;;5.06;86.94;103547.41;5058546;28;45497;-69
2022/01/18 04:12:56;;;;;;;;;31.25;20.00;;;;;5.09;87.01;103546.63;5058879;28;45977;-69
2022/01/18 04:15:22;;;;;;;;;24.00;20.75;;;;;5.10;86.88;103549.25;5053282;28;46004;-69
2022/01/18 04:28:52;;;;;;;;;23.00;22.50;;;;;5.15;86.94;103531.13;4993957;28;46519;-69
2022/01/18 04:31:17;;;;;;;;;29.75;23.75;;;;;5.15;86.77;103532.00;4972871;28;45472;-68
2022/01/18 04:33:43;;;;;;;;;38.25;25.25;;;;;5.14;87.03;103535.47;4978378;28;46028;-69
2022/01/18 04:36:08;;;;;;;;;28.50;22.75;;;;;5.11;86.71;103530.16;4969916;28;45398;-68
2022/01/18 04:38:35;;;;;;;;;31.00;20.50;;;;;5.11;86.73;103537.97;4988116;28;45317;-68
2022/01/18 04:41:06;;;;;;;;;31.50;25.00;;;;;5.08;86.96;103540.53;4974410;28;45492;-69
2022/01/18 04:49:03;;;;;;;;;33.75;23.25;;;;;5.04;87.25;103533.47;4971816;28;45603;-68
2022/01/18 04:51:29;;;;;;;;;30.75;20.25;;;;;5.07;86.92;103537.91;4971164;28;45542;-68
2022/01/18 04:53:57;;;;;;;;;24.00;22.00;;;;;5.07;87.05;103530.06;4979482;28;46029;-69
2022/01/18 04:59:01;;;;;;;;;36.00;19.00;;;;;5.04;87.29;103520.44;5056231;28;45327;-68
2022/01/18 05:01:26;;;;;;;;;28.25;19.50;;;;;5.04;87.33;103532.59;5054036;28;45222;-69
2022/01/18 05:03:52;;;;;;;;;25.25;19.00;;;;;5.01;86.92;103528.16;5056897;28;45222;-68
2022/01/18 05:06:19;;;;;;;;;26.25;22.75;;;;;4.99;87.25;103529.88;5053974;28;45498;-68
2022/01/18 05:08:45;;;;;;;;;30.75;22.50;;;;;4.94;87.37;103529.75;5053975;28;45476;-68
2022/01/18 05:11:15;;;;;;;;;30.25;25.50;;;;;4.92;87.37;103535.78;5067281;28;45421;-69
2022/01/18 05:14:00;;;;;;;;;29.00;20.25;;;;;4.89;87.11;103546.13;5055224;28;45389;-68
2022/01/18 05:24:21;;;;;;;;;27.75;14.75;;;;;4.88;87.68;103540.03;5063908;28;46281;-68
2022/01/18 05:26:47;;;;;;;;;26.00;19.75;;;;;4.91;87.92;103540.13;5068574;28;46083;-69
2022/01/18 05:29:13;;;;;;;;;26.75;24.75;;;;;4.94;87.80;103547.13;5050515;28;45366;-68
2022/01/18 05:31:38;;;;;;;;;38.00;21.00;;;;;4.94;87.68;103549.72;5040212;28;45404;-68
2022/01/18 05:34:03;;;;;;;;;25.25;17.75;;;;;4.90;87.30;103538.31;5040602;28;46823;-68
2022/01/18 05:36:29;;;;;;;;;24.00;19.25;;;;;4.71;87.33;103500.53;5040476;28;45410;-68
2022/01/18 05:38:54;;;;;;;;;33.50;21.00;;;;;4.92;87.48;103543.59;5038693;28;45582;-69
2022/01/18 05:41:20;;;;;;;;;34.75;23.75;;;;;4.92;87.46;103541.00;5038077;28;45423;-69
2022/01/18 05:43:45;;;;;;;;;28.00;23.25;;;;;4.91;87.80;103528.81;5040333;28;46221;-69
2022/01/18 05:46:11;;;;;;;;;26.00;20.50;;;;;4.92;87.26;103528.84;5042740;28;45487;-68
2022/01/18 05:48:37;;;;;;;;;25.00;22.00;;;;;4.85;87.76;103524.28;5047148;28;45447;-68
2022/01/18 05:51:02;;;;;;;;;23.50;19.00;;;;;4.87;87.56;103527.84;5051880;28;45490;-68
2022/01/18 05:53:32;;;;;;;;;25.75;18.75;;;;;4.89;87.54;103523.53;5049663;28;46195;-68
2022/01/18 05:55:58;;;;;;;;;26.00;20.00;;;;;4.89;87.22;103533.97;5051174;28;45818;-68
2022/01/18 05:58:24;;;;;;;;;28.00;19.25;;;;;4.81;87.77;103522.47;5042253;28;45548;-69
2022/01/18 06:00:52;;;;;;;;;33.25;25.00;;;;;4.85;87.74;103532.13;5054799;28;45390;-68
2022/01/18 06:03:28;;;;;;;;;33.25;21.25;;;;;4.86;88.01;103535.63;5049936;28;47033;-69
2022/01/18 06:08:42;;;;;;;;;25.00;20.25;;;;;4.83;87.63;103525.13;5047914;28;47981;-69
2022/01/18 06:11:07;;;;;;;;;22.00;18.25;;;;;4.81;87.47;103530.31;5050904;28;45635;-69
2022/01/18 06:13:33;;;;;;;;;25.00;17.50;;;;;4.78;87.29;103534.53;5039879;28;46200;-69
2022/01/18 06:15:58;;;;;;;;;23.25;15.00;;;;;4.71;87.57;103526.56;5039756;28;45375;-69
2022/01/18 06:18:24;;;;;;;;;27.67;21.00;;;;;4.62;87.47;103520.22;5048681;28;45548;-69
2022/01/18 06:20:49;;;;;;;;;24.00;17.25;;;;;4.53;87.44;103525.19;5053406;28;45598;-69
2022/01/18 06:23:14;;;;;;;;;20.25;16.00;;;;;4.44;87.66;103526.72;5050649;28;45589;-69
2022/01/18 06:25:41;;;;;;;;;30.00;21.00;;;;;4.36;87.80;103527.34;5043203;28;45413;-68
2022/01/18 06:28:07;;;;;;;;;24.25;20.00;;;;;4.28;87.91;103529.75;5049063;28;45316;-69
2022/01/18 06:30:32;;;;;;;;;27.50;18.75;;;;;4.23;87.72;103536.56;5047725;28;45774;-69
2022/01/18 06:32:58;;;;;;;;;22.25;19.25;;;;;4.19;88.34;103532.97;5038242;28;45430;-69
2022/01/18 06:35:23;;;;;;;;;28.75;16.50;;;;;4.20;88.04;103523.44;5037055;28;45359;-69
2022/01/18 06:37:48;;;;;;;;;20.75;16.50;;;;;4.20;87.91;103533.84;5046636;28;45493;-69
2022/01/18 06:40:14;;;;;;;;;26.25;18.50;;;;;4.13;88.50;103514.59;5050510;28;45474;-69
2022/01/18 06:42:40;;;;;;;;;27.50;23.00;;;;;4.24;88.72;103529.63;5047923;28;45624;-68
2022/01/18 06:45:06;;;;;;;;;34.50;20.00;;;;;4.27;88.44;103522.75;5052976;28;45396;-69
2022/01/18 06:47:31;;;;;;;;;24.50;19.25;;;;;4.29;88.73;103522.81;5051631;28;45622;-68
2022/01/18 06:49:57;;;;;;;;;23.00;17.00;;;;;4.35;88.64;103523.88;5053673;28;45390;-69
2022/01/18 06:52:22;;;;;;;;;15.00;15.00;;;;;4.37;88.60;103516.09;5052100;28;46830;-69
2022/01/18 06:54:48;;;;;;;;;25.00;18.75;;;;;4.38;88.80;103523.94;5051808;28;45296;-69
2022/01/18 06:57:13;;;;;;;;;21.75;17.00;;;;;4.41;89.08;103529.22;5053220;28;45570;-68
2022/01/18 06:59:39;;;;;;;;;15.50;14.75;;;;;4.43;89.05;103532.75;5052777;28;45344;-69
2022/01/18 07:02:05;;;;;;;;;27.00;18.50;;;;;4.51;88.96;103532.09;5054365;28;46280;-69
2022/01/18 07:04:30;;;;;;;;;26.50;22.00;;;;;4.56;89.00;103533.97;5052036;28;45441;-69
2022/01/18 07:06:56;;;;;;;;;18.50;15.75;;;;;4.51;88.51;103527.75;5052727;28;45436;-69
2022/01/18 07:09:23;;;;;;;;;18.00;15.75;;;;;4.52;88.47;103532.13;5052381;28;45411;-68
2022/01/18 07:11:50;;;;;;;;;22.25;18.25;;;;;4.50;88.67;103527.72;5052845;28;46240;-69
2022/01/18 07:14:15;;;;;;;;;19.50;17.75;;;;;4.49;88.93;103528.53;5060377;28;45439;-70
2022/01/18 07:16:41;;;;;;;;;19.25;19.25;;;;;4.50;89.01;103525.13;5053500;28;45336;-72
2022/01/18 07:19:06;;;;;;;;;24.50;18.00;;;;;4.52;88.93;103518.22;5051914;28;47861;-70
2022/01/18 07:21:31;;;;;;;;;28.00;20.33;;;;;4.54;88.79;103527.88;5051786;28;47649;-70
2022/01/18 07:38:05;;;;;;;;;28.50;27.50;;;;;4.68;88.49;103536.00;5144144;27;45639;-71
2022/01/18 07:40:32;;;;;;;;;29.50;19.25;;;;;4.74;88.61;103533.56;5129051;27;45346;-71
2022/01/18 07:43:00;;;;;;;;;36.00;23.50;;;;;4.78;88.83;103527.59;5115515;27;45977;-71
2022/01/18 07:45:27;;;;;;;;;35.25;22.75;;;;;4.78;88.15;103508.50;5118427;27;45545;-71
2022/01/18 07:47:52;;;;;;;;;26.75;19.75;;;;;4.94;88.45;103532.34;5119540;27;45431;-71
2022/01/18 07:50:17;;;;;;;;;29.00;21.00;;;;;5.02;88.26;103534.28;5116346;27;45371;-71
2022/01/18 07:52:43;;;;;;;;;39.00;26.00;;;;;5.07;88.58;103527.47;5129418;27;45491;-71
2022/01/18 07:55:09;;;;;;;;;26.67;22.00;;;;;5.11;88.31;103524.06;5118299;27;45390;-71
2022/01/18 07:57:36;;;;;;;;;31.25;22.25;;;;;5.18;88.01;103526.00;5115486;27;45892;-71
2022/01/18 08:00:03;;;;;;;;;30.00;18.00;;;;;5.16;88.31;103512.03;5120600;27;45432;-71
2022/01/18 08:02:28;;;;;;;;;21.50;21.00;;;;;5.28;88.06;103524.50;5117843;27;45546;-71
2022/01/18 08:04:53;;;;;;;;;40.25;26.00;;;;;5.35;88.10;103513.34;5118887;27;45540;-71
2022/01/18 08:07:19;;;;;;;;;39.00;27.33;;;;;5.42;88.06;103510.03;5125444;27;51851;-70
2022/01/18 08:09:44;;;;;;;;;32.33;25.33;;;;;5.48;87.58;103511.06;5109913;27;52892;-71
2022/01/18 08:12:09;;;;;;;;;35.33;26.33;;;;;5.56;87.70;103512.97;5111380;27;45708;-71
2022/01/18 08:14:36;;;;;;;;;29.25;25.00;;;;;5.59;87.58;103513.91;5123068;27;45512;-72
2022/01/18 08:17:05;;;;;;;;;30.50;24.00;;;;;5.68;87.17;103513.22;5124877;27;46610;-71
2022/01/18 08:19:33;;;;;;;;;31.25;20.75;;;;;5.71;87.21;103508.97;5126580;27;45379;-72
2022/01/18 08:21:59;;;;;;;;;31.50;24.50;;;;;5.74;86.90;103508.13;5112573;27;45496;-72
2022/01/18 08:24:25;;;;;;;;;19.75;14.75;;;;;5.77;87.32;103505.59;5114405;27;45464;-72
2022/01/18 08:26:51;;;;;;;;;32.25;20.25;;;;;5.81;86.98;103514.38;5110576;27;45568;-72
2022/01/18 08:29:16;;;;;;;;;23.50;19.25;;;;;5.82;86.83;103506.56;5113596;27;45365;-72
2022/01/18 08:31:42;;;;;;;;;30.50;23.50;;;;;5.94;86.66;103508.59;5110650;27;45336;-72
2022/01/18 08:34:08;;;;;;;;;28.25;20.25;;;;;6.07;87.32;103513.22;5111783;27;45546;-72
2022/01/18 08:36:34;;;;;;;;;31.50;24.25;;;;;6.20;87.04;103515.22;5116334;27;46345;-72
2022/01/18 08:39:00;;;;;;;;;33.25;26.25;;;;;6.30;86.46;103515.41;5106550;27;45467;-72
2022/01/18 08:41:26;;;;;;;;;28.75;25.50;;;;;6.41;86.55;103519.97;5108661;27;45361;-72
2022/01/18 08:43:52;;;;;;;;;31.75;23.00;;;;;6.49;86.34;103515.78;5096023;27;45557;-71
2022/01/18 08:46:17;;;;;;;;;31.75;23.00;;;;;6.63;85.85;103512.53;5102202;27;45512;-70
2022/01/18 08:48:43;;;;;;;;;51.25;36.50;;;;;6.76;85.95;103514.50;5092188;27;45522;-71
2022/01/18 08:51:09;;;;;;;;;31.50;28.00;;;;;6.88;85.31;103514.72;5092824;27;45391;-71
2022/01/18 08:53:35;;;;;;;;;29.75;23.00;;;;;6.99;85.68;103509.66;5084906;27;48010;-71
2022/01/18 08:56:01;;;;;;;;;28.25;24.00;;;;;8.09;87.37;103512.13;5094798;27;47198;-71
2022/01/18 08:58:27;;;;;;;;;32.00;23.50;;;;;10.34;85.45;103510.28;5093278;27;45541;-71
2022/01/18 09:00:52;;;;;;;;;31.25;23.75;;;;;12.55;81.43;103501.00;5090847;27;45366;-71
2022/01/18 09:03:18;;;;;;;;;28.00;25.00;;;;;14.51;77.53;103499.75;5091007;27;45426;-71
2022/01/18 09:05:45;;;;;;;;;33.75;27.00;;;;;16.06;74.06;103483.63;5090658;27;46147;-71
2022/01/18 09:08:12;;;;;;;;;176.00;145.00;;;;;16.87;71.47;103485.25;5093579;27;45300;-71
2022/01/18 09:10:37;;;;;;;;;26.25;21.50;;;;;17.74;70.26;103487.31;5076228;27;45346;-75
2022/01/18 09:13:03;;;;;;;;;29.00;23.00;;;;;18.55;68.48;103484.78;5091873;27;45463;-74
2022/01/18 09:15:28;;;;;;;;;29.00;24.00;;;;;19.07;63.76;103484.84;5086042;27;46412;-75
2022/01/18 09:17:53;;;;;;;;;28.50;21.00;;;;;19.79;63.64;103475.13;5082265;27;45388;-75
2022/01/18 09:20:20;;;;;;;;;30.25;25.00;;;;;20.31;62.88;103473.06;5080204;27;45348;-75
2022/01/18 09:22:48;;;;;;;;;31.00;22.00;;;;;20.78;61.01;103465.78;5079925;27;45555;-75
2022/01/18 09:25:20;;;;;;;;;31.25;25.00;;;;;21.23;57.27;103471.84;5095298;27;46122;-75
2022/01/18 09:27:46;;;;;;;;;34.75;24.75;;;;;21.78;55.89;103469.34;5093668;27;45321;-75
2022/01/18 09:30:13;;;;;;;;;27.00;23.75;;;;;22.25;54.62;103472.47;5090983;27;45552;-75
2022/01/18 09:32:39;;;;;;;;;33.00;22.75;;;;;22.57;55.04;103480.72;5088789;27;45309;-75
2022/01/18 09:35:06;;;;;;;;;24.25;21.25;;;;;22.83;53.26;103480.25;5095099;27;45367;-75
2022/01/18 09:37:32;;;;;;;;;25.75;22.75;;;;;23.12;52.08;103483.25;5078190;27;45745;-75
2022/01/18 09:39:57;;;;;;;;;32.25;25.00;;;;;23.29;52.56;103480.56;5089740;27;46893;-76
2022/01/18 09:42:27;;;;;;;;;29.75;25.00;;;;;23.53;50.44;103485.53;5089257;27;48047;-75
2022/01/18 09:44:52;;;;;;;;;27.00;23.00;;;;;23.90;49.78;103485.25;5090258;27;45501;-74
2022/01/18 09:47:18;;;;;;;;;26.75;24.75;;;;;24.23;49.51;103481.63;5092883;27;45466;-75
2022/01/18 09:49:43;;;;;;;;;20.75;17.25;;;;;24.41;48.83;103483.28;5075144;27;45357;-75
2022/01/18 09:52:09;;;;;;;;;33.25;26.75;;;;;24.37;46.92;103480.84;5097537;27;49777;-75
2022/01/18 09:54:34;;;;;;;;;29.75;25.50;;;;;24.41;45.77;103477.03;5088128;27;46175;-71
2022/01/18 09:56:59;;;;;;;;;31.00;25.50;;;;;24.28;47.58;103486.75;5081535;27;45474;-71
2022/01/18 09:59:25;;;;;;;;;109.75;90.25;;;;;24.41;46.01;103485.97;5080521;27;45450;-70
2022/01/18 10:01:51;;;;;;;;;33.00;27.75;;;;;24.43;44.95;103489.44;5083413;27;45515;-70
2022/01/18 10:04:22;;;;;;;;;34.00;26.75;;;;;24.57;45.05;103483.25;5093012;27;46565;-70
2022/01/18 10:06:55;;;;;;;;;29.75;24.25;;;;;24.45;45.24;103490.22;5085737;27;45772;-70
2022/01/18 10:09:22;;;;;;;;;38.00;29.50;;;;;24.05;44.66;103488.03;5090293;27;45504;-70
2022/01/18 10:12:03;;;;;;;;;31.00;25.00;;;;;23.59;44.81;103487.88;5089349;27;45490;-70
2022/01/18 10:14:29;;;;;;;;;26.50;22.75;;;;;22.72;45.92;103487.13;5090547;27;45508;-70
2022/01/18 10:16:55;;;;;;;;;25.25;23.00;;;;;21.39;45.21;103477.41;5091949;27;45418;-71
2022/01/18 10:19:48;;;;;;;;;31.50;24.75;;;;;19.84;47.12;103478.47;5087046;27;45680;-70
2022/01/18 10:22:23;;;;;;;;;20.50;18.00;;;;;18.73;48.95;103476.22;5094355;27;45514;-71
2022/01/18 10:24:48;;;;;;;;;31.75;24.50;;;;;18.11;49.51;103480.88;5089809;27;46375;-71
2022/01/18 10:27:14;;;;;;;;;23.75;23.00;;;;;17.42;51.08;103458.97;5089386;27;45577;-71
2022/01/18 10:29:46;;;;;;;;;28.25;26.00;;;;;16.80;51.18;103475.69;5089396;27;45422;-71
2022/01/18 10:32:23;;;;;;;;;29.25;25.25;;;;;16.36;52.47;103474.09;5091907;27;45435;-71
2022/01/18 10:37:25;;;;;;;;;34.25;28.00;;;;;15.45;53.80;103475.13;5098024;27;45254;-71
2022/01/18 10:39:56;;;;;;;;;31.75;24.00;;;;;14.98;54.16;103450.44;5089848;27;45348;-71
2022/01/18 10:42:49;;;;;;;;;25.25;19.50;;;;;14.65;55.32;103456.31;5089413;27;45392;-71
2022/01/18 10:45:29;;;;;;;;;29.50;23.25;;;;;14.42;56.16;103454.00;5086672;27;46411;-71
2022/01/18 10:48:19;;;;;;;;;22.75;18.75;;;;;14.20;56.56;103446.41;5079831;27;45506;-71
2022/01/18 10:50:47;;;;;;;;;23.75;17.00;;;;;13.98;56.86;103448.47;5084885;27;45297;-71
2022/01/18 10:53:20;;;;;;;;;26.50;21.50;;;;;13.75;57.29;103440.84;5077924;27;45573;-71
2022/01/18 10:55:48;;;;;;;;;29.25;24.50;;;;;13.57;57.50;103435.78;5092436;27;47320;-71
2022/01/18 10:58:17;;;;;;;;;25.00;19.75;;;;;13.33;57.76;103421.13;5093630;27;45883;-71
2022/01/18 11:00:42;;;;;;;;;24.00;20.25;;;;;13.17;58.75;103423.03;5088676;27;45887;-71
2022/01/18 11:03:09;;;;;;;;;15.75;14.25;;;;;13.12;59.04;103419.56;5088927;27;45561;-71
2022/01/18 11:05:40;;;;;;;;;26.50;19.50;;;;;12.98;59.30;103414.41;5088550;27;46254;-71
2022/01/18 11:08:06;;;;;;;;;25.00;18.50;;;;;12.90;59.75;103410.13;5090853;27;45575;-71
2022/01/18 11:10:36;;;;;;;;;24.25;20.75;;;;;12.81;59.82;103405.81;5092025;27;45482;-71
2022/01/18 11:13:05;;;;;;;;;22.75;17.00;;;;;12.73;60.05;103399.72;5090548;27;45517;-70
2022/01/18 11:15:33;;;;;;;;;23.00;16.00;;;;;12.65;60.53;103388.38;5088578;27;45740;-71
2022/01/18 11:18:06;;;;;;;;;21.75;18.75;;;;;12.58;60.83;103379.66;5088565;27;45557;-72
2022/01/18 11:20:34;;;;;;;;;24.25;16.00;;;;;12.58;60.72;103382.28;5079687;27;45507;-70
2022/01/18 11:23:00;;;;;;;;;17.25;17.00;;;;;12.54;61.05;103364.72;5086927;27;45474;-70
2022/01/18 11:25:27;;;;;;;;;16.00;14.00;;;;;12.48;60.64;103372.69;5095000;27;45383;-70
2022/01/18 11:27:56;;;;;;;;;19.00;14.00;;;;;12.43;60.89;103370.09;5092664;27;45824;-71
2022/01/18 11:30:25;;;;;;;;;17.50;15.00;;;;;12.40;60.96;103369.25;5095584;27;45472;-70
2022/01/18 11:32:53;;;;;;;;;19.25;14.75;;;;;12.33;61.35;103359.66;5092595;27;45533;-70
2022/01/18 11:35:25;;;;;;;;;17.75;12.75;;;;;12.35;60.96;103357.84;5090507;27;45689;-70
2022/01/18 11:38:13;;;;;;;;;17.25;11.25;;;;;12.33;61.31;103360.53;5091827;27;46085;-70
2022/01/18 11:40:47;;;;;;;;;17.00;14.75;;;;;12.33;61.61;103351.72;5091679;27;45397;-69
2022/01/18 11:43:13;;;;;;;;;14.50;10.00;;;;;12.40;61.09;103343.75;5093729;27;45448;-70
2022/01/18 11:45:41;;;;;;;;;20.75;15.00;;;;;12.40;61.37;103332.31;5092607;27;46104;-70
2022/01/18 11:48:11;;;;;;;;;18.00;12.25;;;;;12.39;61.45;103335.84;5085233;27;45606;-70
2022/01/18 11:50:42;;;;;;;;;19.25;11.75;;;;;12.35;61.35;103328.84;5100966;27;45477;-71
2022/01/18 11:53:23;;;;;;;;;15.25;12.00;;;;;12.32;61.30;103337.69;5089827;27;45525;-72
2022/01/18 11:55:49;;;;;;;;;13.75;7.75;;;;;12.26;61.28;103314.84;5089991;27;45584;-72
2022/01/18 11:58:15;;;;;;;;;10.75;9.00;;;;;12.32;61.13;103315.69;5079106;27;45941;-72
2022/01/18 12:00:52;;;;;;;;;14.50;11.50;;;;;12.28;61.53;103307.81;5083213;27;45411;-71
2022/01/18 12:03:25;;;;;;;;;10.25;10.25;;;;;12.26;61.21;103306.94;5082556;27;45416;-72
2022/01/18 12:05:51;;;;;;;;;12.25;11.25;;;;;12.37;61.82;103311.25;5077478;27;46195;-72
2022/01/18 12:08:37;;;;;;;;;13.25;8.00;;;;;12.41;61.29;103310.31;5074836;27;45407;-72
2022/01/18 12:11:05;;;;;;;;;17.00;10.25;;;;;12.45;61.43;103314.69;5073798;27;45415;-72
2022/01/18 12:13:36;;;;;;;;;14.25;10.00;;;;;12.36;61.27;103294.53;5090215;27;45476;-72
2022/01/18 12:16:09;;;;;;;;;14.25;13.00;;;;;12.31;61.11;103290.22;5079662;27;46667;-72
2022/01/18 12:18:36;;;;;;;;;11.75;11.00;;;;;12.32;61.30;103302.50;5080235;27;45668;-72
2022/01/18 12:21:04;;;;;;;;;13.00;10.00;;;;;12.20;61.97;103282.41;5081298;27;45624;-72
2022/01/18 12:23:32;;;;;;;;;11.75;10.00;;;;;12.20;61.71;103287.66;5092122;27;45500;-72
2022/01/18 12:29:07;;;;;;;;;11.75;9.00;;;;;11.94;61.94;103259.78;5091582;27;45372;-72
2022/01/18 12:37:20;;;;;;;;;18.50;15.00;;;;;11.87;62.46;103257.22;5083937;27;45472;-72
2022/01/18 12:39:54;;;;;;;;;13.50;13.00;;;;;11.82;63.03;103262.53;5087237;27;45427;-72
2022/01/18 12:45:22;;;;;;;;;20.50;18.50;;;;;11.80;63.25;103240.56;5051022;28;45558;-71
2022/01/18 12:48:00;;;;;;;;;22.75;16.75;;;;;11.81;63.44;103244.06;5034550;28;45518;-72
2022/01/18 12:50:39;;;;;;;;;21.00;17.50;;;;;11.78;63.17;103237.03;5033515;28;46023;-72
2022/01/18 12:53:06;;;;;;;;;18.50;11.75;;;;;11.86;63.91;103232.63;5039725;28;45591;-71
2022/01/18 12:55:38;;;;;;;;;18.75;14.50;;;;;11.96;63.52;103239.56;5050816;28;45405;-71
2022/01/18 12:58:20;;;;;;;;;23.75;13.25;;;;;12.06;63.83;103237.72;5053940;28;46495;-71